createdAt,value
2024-01-24T00:00:33.869Z,100
2024-01-24T00:05:33.788Z,100
2024-01-24T00:10:33.777Z,100
2024-01-24T00:15:33.799Z,100
2024-01-24T00:20:33.791Z,100
2024-01-24T00:25:33.794Z,100
2024-01-24T00:30:33.811Z,100
2024-01-24T00:35:33.790Z,100
2024-01-24T00:40:33.791Z,100
2024-01-24T00:45:33.803Z,100
2024-01-24T00:50:33.824Z,100
2024-01-24T00:55:33.809Z,100
2024-01-24T01:00:33.865Z,100
2024-01-24T01:05:33.894Z,100
2024-01-24T01:10:33.785Z,100
2024-01-24T01:15:33.801Z,100
2024-01-24T01:20:33.795Z,100
2024-01-24T01:25:33.830Z,100
2024-01-24T01:30:33.798Z,100
2024-01-24T01:35:33.778Z,100
2024-01-24T01:40:33.786Z,100
2024-01-24T01:45:33.844Z,100
2024-01-24T01:50:33.813Z,100
2024-01-24T01:55:33.783Z,100
2024-01-24T02:00:33.838Z,100
2024-01-24T02:05:35.513Z,100
2024-01-24T02:10:33.805Z,100
2024-01-24T02:15:33.956Z,100
2024-01-24T02:20:33.808Z,100
2024-01-24T02:25:33.822Z,100
2024-01-24T02:30:33.834Z,100
2024-01-24T02:35:33.796Z,100
2024-01-24T02:40:33.806Z,100
2024-01-24T02:45:33.862Z,100
2024-01-24T02:50:33.803Z,100
2024-01-24T02:55:33.802Z,100
2024-01-24T03:00:33.812Z,100
2024-01-24T03:05:33.839Z,100
2024-01-24T03:10:33.819Z,100
2024-01-24T03:15:33.828Z,100
2024-01-24T03:20:33.828Z,100
2024-01-24T03:25:33.838Z,100
2024-01-24T03:30:33.846Z,100
2024-01-24T03:35:33.857Z,100
2024-01-24T03:40:33.832Z,100
2024-01-24T03:45:33.847Z,100
2024-01-24T03:50:33.819Z,100
2024-01-24T03:55:33.868Z,100
2024-01-24T04:00:33.889Z,100
2024-01-24T04:05:33.899Z,100
2024-01-24T04:10:33.842Z,100
2024-01-24T04:15:33.842Z,100
2024-01-24T04:20:33.836Z,100
2024-01-24T04:25:33.835Z,100
2024-01-24T04:30:33.962Z,100
2024-01-24T04:35:33.858Z,100
2024-01-24T04:40:33.888Z,100
2024-01-24T04:45:33.930Z,100
2024-01-24T04:50:34.033Z,100
2024-01-24T04:55:33.876Z,100
2024-01-24T05:00:33.882Z,100
2024-01-24T05:05:33.857Z,100
2024-01-24T05:10:33.849Z,100
2024-01-24T05:15:33.918Z,100
2024-01-24T05:20:33.838Z,100
2024-01-24T05:25:33.860Z,100
2024-01-24T05:30:35.359Z,100
2024-01-24T05:35:33.839Z,100
2024-01-24T05:40:33.845Z,100
2024-01-24T05:45:33.898Z,100
2024-01-24T05:50:33.845Z,100
2024-01-24T05:55:33.854Z,100
2024-01-24T06:00:33.917Z,100
2024-01-24T06:05:33.999Z,100
2024-01-24T06:10:33.854Z,100
2024-01-24T06:15:33.936Z,100
2024-01-24T06:20:33.877Z,100
2024-01-24T06:25:33.894Z,100
2024-01-24T06:30:33.952Z,100
2024-01-24T06:35:33.871Z,100
2024-01-24T06:40:33.882Z,100
2024-01-24T06:45:33.925Z,100
2024-01-24T06:50:33.874Z,100
2024-01-24T06:55:33.898Z,100
2024-01-24T07:00:34.003Z,100
2024-01-24T07:05:33.917Z,100
2024-01-24T07:10:33.915Z,100
2024-01-24T07:15:33.965Z,100
2024-01-24T07:20:33.910Z,100
2024-01-24T07:25:33.926Z,100
2024-01-24T07:30:34.017Z,100
2024-01-24T07:35:33.904Z,100
2024-01-24T07:40:33.918Z,100
2024-01-24T07:45:33.950Z,100
2024-01-24T07:50:33.891Z,100
2024-01-24T07:55:37.766Z,100
2024-01-24T08:00:34.031Z,100
2024-01-24T08:05:33.999Z,100
2024-01-24T08:10:33.905Z,100
2024-01-24T08:15:33.917Z,100
2024-01-24T08:20:33.910Z,100
2024-01-24T08:25:33.905Z,100
2024-01-24T08:30:33.959Z,100
2024-01-24T08:35:33.951Z,100
2024-01-24T08:40:33.908Z,100
2024-01-24T08:45:34.093Z,100
2024-01-24T08:50:33.898Z,100
2024-01-24T08:55:33.923Z,100
2024-01-24T09:00:33.942Z,100
2024-01-24T09:05:33.948Z,100
2024-01-24T09:10:33.936Z,100
2024-01-24T09:15:34.108Z,100
2024-01-24T09:20:33.988Z,100
2024-01-24T09:25:33.926Z,100
2024-01-24T09:30:33.916Z,100
2024-01-24T09:35:34.039Z,100
2024-01-24T09:40:33.948Z,100
2024-01-24T09:45:33.954Z,100
2024-01-24T09:50:33.918Z,100
2024-01-24T09:55:33.948Z,100
2024-01-24T10:00:33.973Z,100
2024-01-24T10:05:33.980Z,100
2024-01-24T10:10:33.941Z,100
2024-01-24T10:15:33.949Z,100
2024-01-24T10:20:33.965Z,100
2024-01-24T10:25:33.995Z,100
2024-01-24T10:30:33.973Z,100
2024-01-24T10:35:33.954Z,100
2024-01-24T10:37:36.727Z,99.3
2024-01-24T10:38:35.703Z,96.2
2024-01-24T10:39:35.718Z,95.8
2024-01-24T10:40:34.299Z,95.8
2024-01-24T10:40:35.803Z,96.6
2024-01-24T10:41:35.671Z,96.4
2024-01-24T10:42:35.735Z,98.1
2024-01-24T10:43:35.743Z,96.9
2024-01-24T10:44:35.722Z,98.3
2024-01-24T10:45:33.981Z,98.3
2024-01-24T10:45:35.731Z,97.8
2024-01-24T10:46:35.743Z,96.1
2024-01-24T10:47:35.701Z,97.4
2024-01-24T10:48:35.769Z,94.6
2024-01-24T10:49:35.848Z,92.8
2024-01-24T10:50:33.978Z,92.8
2024-01-24T10:50:35.760Z,93.3
2024-01-24T10:51:35.774Z,91.7
2024-01-24T10:52:35.756Z,90
2024-01-24T10:53:35.733Z,89.4
2024-01-24T10:54:35.797Z,88.8
2024-01-24T10:55:33.991Z,88.8
2024-01-24T10:56:35.777Z,84.8
2024-01-24T10:57:35.921Z,84.9
2024-01-24T10:58:35.836Z,85.3
2024-01-24T10:59:35.772Z,84.6
2024-01-24T11:00:34.060Z,84.6
2024-01-24T11:01:35.905Z,87.8
2024-01-24T11:02:35.801Z,89.8
2024-01-24T11:03:35.825Z,88.7
2024-01-24T11:04:35.790Z,87.1
2024-01-24T11:05:34.054Z,87.1
2024-01-24T11:05:35.779Z,87.9
2024-01-24T11:06:35.815Z,86.5
2024-01-24T11:07:35.802Z,87.7
2024-01-24T11:08:40.053Z,88.3
2024-01-24T11:09:35.796Z,88.2
2024-01-24T11:10:33.968Z,88.2
2024-01-24T11:10:35.778Z,89.6
2024-01-24T11:11:35.768Z,89.8
2024-01-24T11:12:35.790Z,88.9
2024-01-24T11:13:35.771Z,88.2
2024-01-24T11:14:35.808Z,89.1
2024-01-24T11:15:34.018Z,89.1
2024-01-24T11:16:35.779Z,88.6
2024-01-24T11:17:35.827Z,89.6
2024-01-24T11:18:35.904Z,89.4
2024-01-24T11:19:35.930Z,88.4
2024-01-24T11:20:34.009Z,88.4
2024-01-24T11:20:35.843Z,89.5
2024-01-24T11:21:36.835Z,89.3
2024-01-24T11:22:35.948Z,90.3
2024-01-24T11:23:35.837Z,88.6
2024-01-24T11:24:35.857Z,89.8
2024-01-24T11:25:33.979Z,89.8
2024-01-24T11:25:35.828Z,89.3
2024-01-24T11:26:35.808Z,89.8
2024-01-24T11:27:36.447Z,90
2024-01-24T11:28:35.862Z,90.3
2024-01-24T11:29:35.839Z,90.5
2024-01-24T11:30:33.991Z,90.5
2024-01-24T11:30:35.853Z,91.1
2024-01-24T11:31:35.994Z,90.1
2024-01-24T11:32:35.836Z,89.6
2024-01-24T11:34:35.995Z,90.4
2024-01-24T11:35:34.006Z,90.4
2024-01-24T11:35:35.996Z,91.2
2024-01-24T11:36:35.845Z,91.5
2024-01-24T11:37:35.884Z,91.9
2024-01-24T11:38:35.878Z,91.8
2024-01-24T11:39:35.945Z,90.8
2024-01-24T11:40:34.016Z,90.8
2024-01-24T11:41:35.905Z,91.6
2024-01-24T11:43:37.727Z,91.7
2024-01-24T11:44:35.894Z,91.4
2024-01-24T11:45:34.016Z,91.4
2024-01-24T11:46:35.892Z,91.3
2024-01-24T11:47:35.910Z,92
2024-01-24T11:48:36.194Z,91.8
2024-01-24T11:49:36.015Z,91.6
2024-01-24T11:50:34.006Z,91.6
2024-01-24T11:50:35.946Z,91.7
2024-01-24T11:51:35.991Z,91.1
2024-01-24T11:53:35.961Z,89.7
2024-01-24T11:54:35.988Z,90
2024-01-24T11:55:34.022Z,90
2024-01-24T11:56:36.031Z,89.9
2024-01-24T11:57:35.987Z,88.9
2024-01-24T11:58:36.064Z,86.6
2024-01-24T11:59:35.940Z,88.2
2024-01-24T12:00:34.017Z,88.2
2024-01-24T12:00:35.970Z,86.6
2024-01-24T12:01:36.004Z,86.2
2024-01-24T12:03:36.017Z,84.8
2024-01-24T12:04:36.029Z,85.5
2024-01-24T12:05:34.042Z,85.5
2024-01-24T12:05:35.948Z,85.2
2024-01-24T12:06:36.050Z,84.9
2024-01-24T12:07:36.073Z,84.7
2024-01-24T12:08:35.980Z,84.2
2024-01-24T12:09:36.014Z,81.4
2024-01-24T12:10:34.073Z,81.4
2024-01-24T12:10:35.962Z,82.8
2024-01-24T12:11:35.998Z,81.8
2024-01-24T12:13:35.975Z,80.9
2024-01-24T12:14:35.966Z,82.2
2024-01-24T12:15:34.009Z,82.2
2024-01-24T12:15:36.057Z,81
2024-01-24T12:16:36.010Z,80.2
2024-01-24T12:17:36.061Z,80.6
2024-01-24T12:18:36.104Z,81.8
2024-01-24T12:19:36.067Z,81.5
2024-01-24T12:20:34.006Z,81.5
2024-01-24T12:20:36.052Z,81.9
2024-01-24T12:21:36.028Z,81.7
2024-01-24T12:22:36.075Z,81.2
2024-01-24T12:23:36.172Z,79.3
2024-01-24T12:24:36.077Z,80.1
2024-01-24T12:25:34.003Z,80.1
2024-01-24T12:26:36.094Z,79.1
2024-01-24T12:27:36.072Z,79.9
2024-01-24T12:28:36.196Z,79.1
2024-01-24T12:29:36.040Z,80.2
2024-01-24T12:30:34.074Z,80.2
2024-01-24T12:31:36.052Z,80
2024-01-24T12:32:36.027Z,80.1
2024-01-24T12:34:36.143Z,80.7
2024-01-24T12:35:33.993Z,80.7
2024-01-24T12:36:36.059Z,81.2
2024-01-24T12:37:36.065Z,80.8
2024-01-24T12:38:36.101Z,81.1
2024-01-24T12:39:36.192Z,82
2024-01-24T12:40:34.008Z,82
2024-01-24T12:41:36.071Z,82.3
2024-01-24T12:42:36.104Z,82.7
2024-01-24T12:43:36.059Z,83
2024-01-24T12:44:36.054Z,81.6
2024-01-24T12:45:34.024Z,81.6
2024-01-24T12:46:36.064Z,82.6
2024-01-24T12:47:36.086Z,83.7
2024-01-24T12:48:36.231Z,83.3
2024-01-24T12:49:36.167Z,84
2024-01-24T12:50:34.208Z,84
2024-01-24T12:51:37.453Z,84.2
2024-01-24T12:52:36.103Z,85
2024-01-24T12:53:36.401Z,83.2
2024-01-24T12:54:36.102Z,83.1
2024-01-24T12:55:34.019Z,83.1
2024-01-24T12:55:36.105Z,83.7
2024-01-24T12:56:36.118Z,82.3
2024-01-24T12:57:36.454Z,82.6
2024-01-24T12:58:36.063Z,82.7
2024-01-24T12:59:36.100Z,83.4
2024-01-24T13:00:34.069Z,83.4
2024-01-24T13:00:36.175Z,83.3
2024-01-24T13:01:36.207Z,83.9
2024-01-24T13:02:36.073Z,84.4
2024-01-24T13:03:36.292Z,83.5
2024-01-24T13:05:38.921Z,83.5
2024-01-24T13:06:36.159Z,84.7
2024-01-24T13:07:36.187Z,84.5
2024-01-24T13:08:36.197Z,84.9
2024-01-24T13:09:39.671Z,84.4
2024-01-24T13:10:34.066Z,84.4
2024-01-24T13:11:36.151Z,83.7
2024-01-24T13:12:36.128Z,83.9
2024-01-24T13:13:36.146Z,83.8
2024-01-24T13:14:36.201Z,82.5
2024-01-24T13:15:34.025Z,82.5
2024-01-24T13:16:36.270Z,80.8
2024-01-24T13:17:36.214Z,79.4
2024-01-24T13:18:36.264Z,78.7
2024-01-24T13:19:36.220Z,77.2
2024-01-24T13:20:33.998Z,77.2
2024-01-24T13:22:36.165Z,75.9
2024-01-24T13:23:36.163Z,76.3
2024-01-24T13:24:36.173Z,73.9
2024-01-24T13:25:34.086Z,73.9
2024-01-24T13:25:36.221Z,73.1
2024-01-24T13:26:36.203Z,71.3
2024-01-24T13:27:36.206Z,70.9
2024-01-24T13:28:36.203Z,70.8
2024-01-24T13:29:36.215Z,70
2024-01-24T13:30:34.094Z,70
2024-01-24T13:30:36.226Z,68.3
2024-01-24T13:31:36.194Z,67.7
2024-01-24T13:32:36.235Z,66.2
2024-01-24T13:33:37.935Z,66.1
2024-01-24T13:34:36.313Z,67.2
2024-01-24T13:35:34.020Z,67.2
2024-01-24T13:36:36.263Z,67.5
2024-01-24T13:38:36.215Z,65.8
2024-01-24T13:39:37.006Z,67
2024-01-24T13:40:33.985Z,67
2024-01-24T13:40:36.249Z,67.2
2024-01-24T13:41:36.245Z,65.4
2024-01-24T13:42:36.280Z,65.5
2024-01-24T13:43:36.263Z,65.2
2024-01-24T13:44:36.195Z,66.5
2024-01-24T13:45:34.952Z,66.5
2024-01-24T13:45:38.271Z,66.4
2024-01-24T13:46:36.286Z,66.1
2024-01-24T13:47:36.256Z,65.6
2024-01-24T13:48:36.353Z,66.6
2024-01-24T13:49:36.326Z,65
2024-01-24T13:50:34.037Z,65
2024-01-24T13:51:39.088Z,64.6
2024-01-24T13:52:36.314Z,64.7
2024-01-24T13:53:36.282Z,65.8
2024-01-24T13:54:36.314Z,64.7
2024-01-24T13:55:34.032Z,64.7
2024-01-24T13:56:36.277Z,64.6
2024-01-24T13:58:36.380Z,65.7
2024-01-24T13:59:36.288Z,64.8
2024-01-24T14:00:34.092Z,64.8
2024-01-24T14:00:36.355Z,65.4
2024-01-24T14:01:40.366Z,65.6
2024-01-24T14:02:36.311Z,65.9
2024-01-24T14:03:37.058Z,65.4
2024-01-24T14:04:36.413Z,65.5
2024-01-24T14:05:34.027Z,65.5
2024-01-24T14:06:36.405Z,66
2024-01-24T14:07:36.350Z,66.6
2024-01-24T14:08:36.342Z,66.7
2024-01-24T14:09:37.297Z,66.5
2024-01-24T14:10:34.012Z,66.5
2024-01-24T14:10:36.338Z,66.9
2024-01-24T14:11:36.319Z,67.3
2024-01-24T14:12:36.315Z,66.9
2024-01-24T14:13:36.321Z,67
2024-01-24T14:14:36.381Z,66.3
2024-01-24T14:15:35.345Z,66.3
2024-01-24T14:17:36.384Z,66.3
2024-01-24T14:18:36.433Z,66.5
2024-01-24T14:19:36.425Z,65.8
2024-01-24T14:20:34.007Z,65.8
2024-01-24T14:21:36.416Z,65.3
2024-01-24T14:22:36.375Z,65
2024-01-24T14:23:36.394Z,65.8
2024-01-24T14:24:36.487Z,65.9
2024-01-24T14:25:33.985Z,65.9
2024-01-24T14:26:36.335Z,64.8
2024-01-24T14:27:36.382Z,65
2024-01-24T14:29:36.385Z,65.4
2024-01-24T14:30:34.029Z,65.4
2024-01-24T14:31:36.922Z,65
2024-01-24T14:32:36.414Z,65.5
2024-01-24T14:33:36.517Z,65.2
2024-01-24T14:34:36.509Z,65.5
2024-01-24T14:35:34.134Z,65.5
2024-01-24T14:36:36.411Z,65.8
2024-01-24T14:37:36.514Z,66.3
2024-01-24T14:38:36.380Z,65.9
2024-01-24T14:39:36.389Z,66.4
2024-01-24T14:40:34.009Z,66.4
2024-01-24T14:40:36.365Z,66.3
2024-01-24T14:41:36.418Z,66.8
2024-01-24T14:42:36.415Z,66.4
2024-01-24T14:44:36.428Z,66.9
2024-01-24T14:45:34.019Z,66.9
2024-01-24T14:46:36.394Z,67.5
2024-01-24T14:47:36.403Z,66.6
2024-01-24T14:48:36.476Z,66.1
2024-01-24T14:49:36.594Z,66.9
2024-01-24T14:50:34.011Z,66.9
2024-01-24T14:51:36.439Z,66.4
2024-01-24T14:52:36.424Z,67
2024-01-24T14:53:36.435Z,66.8
2024-01-24T14:54:36.485Z,66.5
2024-01-24T14:55:34.044Z,66.5
2024-01-24T14:55:36.424Z,66.2
2024-01-24T14:56:36.476Z,66.8
2024-01-24T14:57:36.464Z,67.2
2024-01-24T14:58:36.483Z,67.6
2024-01-24T14:59:36.473Z,67.3
2024-01-24T15:00:34.082Z,67.3
2024-01-24T15:01:36.544Z,67.3
2024-01-24T15:02:38.153Z,67.6
2024-01-24T15:03:36.530Z,67.5
2024-01-24T15:04:36.498Z,67.1
2024-01-24T15:05:34.008Z,67.1
2024-01-24T15:06:36.532Z,66.8
2024-01-24T15:07:36.596Z,66.3
2024-01-24T15:08:36.434Z,66.6
2024-01-24T15:09:36.506Z,66.8
2024-01-24T15:10:34.004Z,66.8
2024-01-24T15:10:36.515Z,66.7
2024-01-24T15:11:36.500Z,66.9
2024-01-24T15:12:36.566Z,67.7
2024-01-24T15:13:36.493Z,67.6
2024-01-24T15:14:36.499Z,67.4
2024-01-24T15:15:34.042Z,67.4
2024-01-24T15:15:36.484Z,67.5
2024-01-24T15:16:36.517Z,67.3
2024-01-24T15:17:36.540Z,67.9
2024-01-24T15:18:36.603Z,66.8
2024-01-24T15:20:34.291Z,66.8
2024-01-24T15:21:36.524Z,66.3
2024-01-24T15:22:37.304Z,66.4
2024-01-24T15:23:36.498Z,65.7
2024-01-24T15:24:36.584Z,66.6
2024-01-24T15:25:34.015Z,66.6
2024-01-24T15:26:37.053Z,65
2024-01-24T15:27:36.565Z,64.4
2024-01-24T15:28:38.143Z,64.9
2024-01-24T15:30:34.015Z,64.9
2024-01-24T15:32:36.526Z,65.9
2024-01-24T15:33:36.625Z,66.2
2024-01-24T15:34:36.556Z,65.7
2024-01-24T15:35:34.054Z,65.7
2024-01-24T15:36:36.599Z,66.2
2024-01-24T15:37:36.583Z,66.8
2024-01-24T15:38:36.582Z,66.4
2024-01-24T15:39:36.581Z,65.8
2024-01-24T15:40:34.038Z,65.8
2024-01-24T15:41:36.562Z,65.5
2024-01-24T15:42:36.636Z,65.4
2024-01-24T15:43:36.579Z,65
2024-01-24T15:44:36.590Z,65.8
2024-01-24T15:45:34.148Z,65.8
2024-01-24T15:46:36.542Z,65.5
2024-01-24T15:47:36.629Z,65.4
2024-01-24T15:48:36.682Z,64.9
2024-01-24T15:49:36.670Z,64.6
2024-01-24T15:50:34.032Z,64.6
2024-01-24T15:50:36.567Z,64.8
2024-01-24T15:51:36.641Z,65
2024-01-24T15:52:36.641Z,64.7
2024-01-24T15:53:36.605Z,64.4
2024-01-24T15:54:36.601Z,64.2
2024-01-24T15:55:34.026Z,64.2
2024-01-24T15:56:36.624Z,64.2
2024-01-24T15:57:36.648Z,64.7
2024-01-24T15:58:38.115Z,64.4
2024-01-24T15:59:36.671Z,64.8
2024-01-24T16:00:34.154Z,64.8
2024-01-24T16:01:36.643Z,65.2
2024-01-24T16:02:36.623Z,65
2024-01-24T16:03:36.689Z,65.3
2024-01-24T16:04:36.704Z,65.5
2024-01-24T16:05:34.065Z,65.5
2024-01-24T16:06:36.635Z,65.5
2024-01-24T16:07:36.774Z,65.6
2024-01-24T16:08:36.646Z,65
2024-01-24T16:09:36.634Z,64.7
2024-01-24T16:10:34.076Z,64.7
2024-01-24T16:10:36.646Z,65.4
2024-01-24T16:11:36.661Z,65.6
2024-01-24T16:12:36.638Z,65.5
2024-01-24T16:13:36.639Z,65.2
2024-01-24T16:14:36.663Z,65.4
2024-01-24T16:15:34.043Z,65.4
2024-01-24T16:16:36.713Z,66
2024-01-24T16:17:36.693Z,65
2024-01-24T16:18:36.672Z,65.8
2024-01-24T16:19:36.758Z,65.1
2024-01-24T16:20:34.068Z,65.1
2024-01-24T16:21:36.670Z,65.2
2024-01-24T16:23:36.951Z,65.1
2024-01-24T16:24:36.722Z,65.2
2024-01-24T16:25:34.040Z,65.2
2024-01-24T16:26:36.727Z,64.8
2024-01-24T16:27:36.745Z,65.3
2024-01-24T16:28:36.712Z,65.6
2024-01-24T16:29:36.734Z,65.4
2024-01-24T16:30:34.044Z,65.4
2024-01-24T16:31:36.715Z,64.9
2024-01-24T16:33:36.802Z,64.8
2024-01-24T16:34:36.783Z,64.7
2024-01-24T16:35:34.173Z,64.7
2024-01-24T16:36:36.742Z,65.4
2024-01-24T16:37:36.742Z,65.9
2024-01-24T16:38:36.709Z,66
2024-01-24T16:39:36.794Z,65.9
2024-01-24T16:40:34.064Z,65.9
2024-01-24T16:41:36.758Z,66.6
2024-01-24T16:42:36.779Z,66.4
2024-01-24T16:43:36.786Z,66.8
2024-01-24T16:44:36.790Z,67.4
2024-01-24T16:45:34.092Z,67.4
2024-01-24T16:46:36.740Z,67.3
2024-01-24T16:47:36.846Z,67.2
2024-01-24T16:48:36.862Z,67.6
2024-01-24T16:49:37.028Z,68.2
2024-01-24T16:50:34.042Z,68.2
2024-01-24T16:51:36.817Z,68
2024-01-24T16:53:36.785Z,67.8
2024-01-24T16:54:37.036Z,68.3
2024-01-24T16:55:34.049Z,68.3
2024-01-24T16:58:36.776Z,68.1
2024-01-24T16:59:36.809Z,68.2
2024-01-24T17:00:34.207Z,68.2
2024-01-24T17:00:36.861Z,68
2024-01-24T17:01:36.853Z,68.3
2024-01-24T17:02:38.273Z,67.9
2024-01-24T17:03:36.965Z,68
2024-01-24T17:04:36.913Z,68.2
2024-01-24T17:05:34.137Z,68.2
2024-01-24T17:06:38.802Z,68.1
2024-01-24T17:07:36.835Z,68.2
2024-01-24T17:08:36.832Z,67.8
2024-01-24T17:09:36.826Z,67.5
2024-01-24T17:10:34.091Z,67.5
2024-01-24T17:11:36.830Z,68.3
2024-01-24T17:12:36.857Z,68.1
2024-01-24T17:14:36.841Z,68.2
2024-01-24T17:15:34.092Z,68.2
2024-01-24T17:16:36.903Z,69
2024-01-24T17:17:36.871Z,68.8
2024-01-24T17:18:36.903Z,68.7
2024-01-24T17:19:37.104Z,69
2024-01-24T17:20:34.076Z,69
2024-01-24T17:21:36.864Z,68
2024-01-24T17:22:36.859Z,68.1
2024-01-24T17:23:36.854Z,68.3
2024-01-24T17:24:36.932Z,68.6
2024-01-24T17:25:34.043Z,68.6
2024-01-24T17:26:36.902Z,68.9
2024-01-24T17:27:36.895Z,69.1
2024-01-24T17:28:36.889Z,69.5
2024-01-24T17:29:36.891Z,68.5
2024-01-24T17:30:34.097Z,68.5
2024-01-24T17:31:36.896Z,68.3
2024-01-24T17:32:36.983Z,68.7
2024-01-24T17:34:36.957Z,69.2
2024-01-24T17:35:37.175Z,69.2
2024-01-24T17:35:38.066Z,69.3
2024-01-24T17:36:36.904Z,69.2
2024-01-24T17:37:36.893Z,69.7
2024-01-24T17:38:36.943Z,69.1
2024-01-24T17:39:36.975Z,69.4
2024-01-24T17:40:34.639Z,69.4
2024-01-24T17:41:36.917Z,69.2
2024-01-24T17:42:36.932Z,69.6
2024-01-24T17:43:36.938Z,69.4
2024-01-24T17:44:36.921Z,70.1
2024-01-24T17:45:34.096Z,70.1
2024-01-24T17:46:36.945Z,70.3
2024-01-24T17:47:36.969Z,70.4
2024-01-24T17:48:37.389Z,70.3
2024-01-24T17:49:36.958Z,70.6
2024-01-24T17:50:34.049Z,70.6
2024-01-24T17:51:36.969Z,70.4
2024-01-24T17:52:36.934Z,70.9
2024-01-24T17:53:36.953Z,71.1
2024-01-24T17:54:36.953Z,71.2
2024-01-24T17:55:34.040Z,71.2
2024-01-24T17:55:36.951Z,70.9
2024-01-24T17:56:36.952Z,71.3
2024-01-24T17:57:36.996Z,71.8
2024-01-24T17:58:37.221Z,71.7
2024-01-24T18:00:34.125Z,71.7
2024-01-24T18:01:37.014Z,71.9
2024-01-24T18:02:36.985Z,72.2
2024-01-24T18:03:37.004Z,72.5
2024-01-24T18:04:36.986Z,72.2
2024-01-24T18:05:34.039Z,72.2
2024-01-24T18:05:37.997Z,72.3
2024-01-24T18:06:36.980Z,73.2
2024-01-24T18:07:37.045Z,72.6
2024-01-24T18:08:36.984Z,73
2024-01-24T18:09:37.017Z,73.2
2024-01-24T18:10:34.121Z,73.2
2024-01-24T18:10:36.972Z,73.4
2024-01-24T18:11:36.975Z,73.3
2024-01-24T18:12:37.042Z,73.6
2024-01-24T18:13:36.982Z,74.2
2024-01-24T18:14:36.997Z,74.3
2024-01-24T18:15:34.059Z,74.3
2024-01-24T18:15:37.058Z,74.2
2024-01-24T18:17:37.064Z,74.3
2024-01-24T18:18:37.162Z,74.8
2024-01-24T18:19:37.124Z,75.2
2024-01-24T18:20:34.040Z,75.2
2024-01-24T18:21:37.036Z,75.1
2024-01-24T18:22:37.026Z,75
2024-01-24T18:23:37.001Z,74.9
2024-01-24T18:25:34.044Z,74.9
2024-01-24T18:25:37.069Z,75.2
2024-01-24T18:26:37.027Z,75.1
2024-01-24T18:27:37.156Z,74.9
2024-01-24T18:28:37.004Z,75.1
2024-01-24T18:29:37.059Z,75.4
2024-01-24T18:30:34.064Z,75.4
2024-01-24T18:31:37.068Z,75.6
2024-01-24T18:33:37.084Z,76
2024-01-24T18:34:37.924Z,75.8
2024-01-24T18:35:34.049Z,75.8
2024-01-24T18:36:37.062Z,76
2024-01-24T18:38:37.059Z,76.1
2024-01-24T18:39:37.096Z,76.2
2024-01-24T18:40:34.050Z,76.2
2024-01-24T18:41:37.022Z,76.3
2024-01-24T18:42:37.080Z,76.4
2024-01-24T18:43:37.128Z,76.1
2024-01-24T18:44:37.066Z,76.3
2024-01-24T18:45:34.060Z,76.3
2024-01-24T18:46:37.090Z,77.3
2024-01-24T18:47:37.132Z,76.8
2024-01-24T18:48:37.170Z,76.5
2024-01-24T18:49:37.168Z,76.3
2024-01-24T18:50:34.039Z,76.3
2024-01-24T18:51:37.112Z,76.5
2024-01-24T18:52:37.147Z,76.7
2024-01-24T18:53:37.185Z,76.5
2024-01-24T18:54:37.130Z,76.6
2024-01-24T18:55:34.050Z,76.6
2024-01-24T18:56:37.113Z,76.7
2024-01-24T18:57:37.114Z,76.6
2024-01-24T18:58:37.268Z,76.8
2024-01-24T18:59:37.135Z,76.6
2024-01-24T19:00:34.195Z,76.6
2024-01-24T19:01:37.124Z,76.6
2024-01-24T19:03:37.183Z,76.4
2024-01-24T19:04:37.184Z,76.6
2024-01-24T19:05:36.889Z,76.6
2024-01-24T19:07:37.214Z,76.1
2024-01-24T19:08:37.165Z,76.5
2024-01-24T19:10:34.048Z,76.5
2024-01-24T19:10:37.125Z,76.6
2024-01-24T19:11:37.152Z,76.2
2024-01-24T19:12:37.172Z,76.7
2024-01-24T19:14:37.156Z,77
2024-01-24T19:15:34.070Z,77
2024-01-24T19:16:37.212Z,76.7
2024-01-24T19:17:37.191Z,76.9
2024-01-24T19:18:37.273Z,77.2
2024-01-24T19:19:37.385Z,77.1
2024-01-24T19:20:34.096Z,77.1
2024-01-24T19:21:37.161Z,76.8
2024-01-24T19:22:37.190Z,77
2024-01-24T19:23:37.209Z,77.1
2024-01-24T19:24:37.231Z,77.2
2024-01-24T19:25:34.058Z,77.2
2024-01-24T19:25:37.229Z,77.7
2024-01-24T19:26:37.232Z,76.9
2024-01-24T19:27:37.300Z,76.8
2024-01-24T19:28:37.218Z,77.4
2024-01-24T19:29:37.233Z,77.1
2024-01-24T19:30:34.092Z,77.1
2024-01-24T19:31:37.207Z,76.7
2024-01-24T19:32:37.235Z,76.5
2024-01-24T19:33:37.311Z,76
2024-01-24T19:34:37.341Z,76.3
2024-01-24T19:35:34.060Z,76.3
2024-01-24T19:36:37.307Z,76.7
2024-01-24T19:38:37.272Z,76.8
2024-01-24T19:39:37.289Z,77
2024-01-24T19:40:34.068Z,77
2024-01-24T19:41:37.301Z,76.9
2024-01-24T19:42:37.257Z,77.4
2024-01-24T19:43:37.249Z,77.3
2024-01-24T19:44:37.217Z,77
2024-01-24T19:45:34.091Z,77
2024-01-24T19:47:37.316Z,77.7
2024-01-24T19:48:37.413Z,77.5
2024-01-24T19:49:37.351Z,77.8
2024-01-24T19:50:34.051Z,77.8
2024-01-24T19:50:37.310Z,78
2024-01-24T19:51:37.322Z,78.1
2024-01-24T19:52:37.294Z,78.3
2024-01-24T19:53:37.331Z,78
2024-01-24T19:55:34.053Z,78
2024-01-24T19:55:37.283Z,78.2
2024-01-24T19:56:37.278Z,78.4
2024-01-24T19:57:37.297Z,78.2
2024-01-24T19:58:37.295Z,78.4
2024-01-24T20:00:34.163Z,78.4
2024-01-24T20:01:37.426Z,78.5
2024-01-24T20:02:37.306Z,78.8
2024-01-24T20:03:37.334Z,78.5
2024-01-24T20:04:37.315Z,78.3
2024-01-24T20:05:34.100Z,78.3
2024-01-24T20:06:37.373Z,77.9
2024-01-24T20:07:37.437Z,78.1
2024-01-24T20:08:37.374Z,78.4
2024-01-24T20:09:37.390Z,78.5
2024-01-24T20:10:34.061Z,78.5
2024-01-24T20:11:37.348Z,78.5
2024-01-24T20:12:37.398Z,78.4
2024-01-24T20:13:37.375Z,78.1
2024-01-24T20:14:37.350Z,78
2024-01-24T20:15:34.129Z,78
2024-01-24T20:16:37.354Z,78.2
2024-01-24T20:17:37.377Z,77.9
2024-01-24T20:18:37.406Z,78.7
2024-01-24T20:19:37.383Z,78.2
2024-01-24T20:20:34.110Z,78.2
2024-01-24T20:20:37.422Z,77.9
2024-01-24T20:21:37.366Z,78.4
2024-01-24T20:22:37.353Z,78.3
2024-01-24T20:23:37.372Z,78.4
2024-01-24T20:24:37.437Z,78.1
2024-01-24T20:25:34.066Z,78.1
2024-01-24T20:26:37.386Z,78.1
2024-01-24T20:27:37.447Z,77.8
2024-01-24T20:28:37.412Z,78.5
2024-01-24T20:29:37.390Z,78.6
2024-01-24T20:30:34.147Z,78.6
2024-01-24T20:31:37.388Z,78.7
2024-01-24T20:32:42.602Z,78.4
2024-01-24T20:34:37.458Z,78.6
2024-01-24T20:35:34.099Z,78.6
2024-01-24T20:35:37.427Z,78.3
2024-01-24T20:36:37.406Z,78.6
2024-01-24T20:37:37.419Z,78.5
2024-01-24T20:39:37.466Z,78.7
2024-01-24T20:40:34.078Z,78.7
2024-01-24T20:40:37.402Z,78.6
2024-01-24T20:41:37.450Z,78.9
2024-01-24T20:42:37.409Z,78.4
2024-01-24T20:43:37.428Z,79.3
2024-01-24T20:44:37.425Z,78.5
2024-01-24T20:45:34.136Z,78.5
2024-01-24T20:46:37.458Z,78.6
2024-01-24T20:47:37.439Z,78.9
2024-01-24T20:48:37.552Z,78.8
2024-01-24T20:50:34.127Z,78.8
2024-01-24T20:51:37.445Z,79
2024-01-24T20:52:37.413Z,79.1
2024-01-24T20:53:37.425Z,79.4
2024-01-24T20:54:37.447Z,79.3
2024-01-24T20:55:34.136Z,79.3
2024-01-24T20:57:37.570Z,79.2
2024-01-24T20:58:37.440Z,79.4
2024-01-24T20:59:37.457Z,79.6
2024-01-24T21:00:34.164Z,79.6
2024-01-24T21:01:37.539Z,79.5
2024-01-24T21:02:37.449Z,79.4
2024-01-24T21:03:37.703Z,79.5
2024-01-24T21:05:34.142Z,79.5
2024-01-24T21:05:37.471Z,80.1
2024-01-24T21:06:37.486Z,79.8
2024-01-24T21:07:37.554Z,80
2024-01-24T21:10:34.528Z,80
2024-01-24T21:11:37.510Z,80.1
2024-01-24T21:12:37.530Z,79.7
2024-01-24T21:13:37.474Z,79.9
2024-01-24T21:14:37.524Z,80
2024-01-24T21:15:34.082Z,80
2024-01-24T21:16:37.553Z,79.8
2024-01-24T21:18:38.129Z,80
2024-01-24T21:19:37.535Z,80.1
2024-01-24T21:20:34.201Z,80.1
2024-01-24T21:21:37.755Z,79.8
2024-01-24T21:22:37.548Z,79.9
2024-01-24T21:23:37.530Z,80.1
2024-01-24T21:24:37.534Z,80.2
2024-01-24T21:25:34.068Z,80.2
2024-01-24T21:26:37.572Z,79.7
2024-01-24T21:27:37.564Z,79.6
2024-01-24T21:28:37.560Z,79.9
2024-01-24T21:29:37.568Z,80
2024-01-24T21:30:34.097Z,80
2024-01-24T21:30:37.624Z,81.1
2024-01-24T21:31:37.660Z,80.1
2024-01-24T21:32:37.546Z,80.3
2024-01-24T21:33:37.564Z,80.4
2024-01-24T21:34:37.631Z,79.9
2024-01-24T21:35:34.070Z,79.9
2024-01-24T21:36:37.598Z,80.1
2024-01-24T21:38:37.608Z,80.2
2024-01-24T21:39:37.585Z,80.1
2024-01-24T21:40:34.077Z,80.1
2024-01-24T21:41:37.613Z,80.2
2024-01-24T21:42:37.605Z,80.1
2024-01-24T21:43:37.575Z,80.2
2024-01-24T21:44:37.612Z,80
2024-01-24T21:45:34.069Z,80
2024-01-24T21:46:37.574Z,79.9
2024-01-24T21:47:38.181Z,80.2
2024-01-24T21:48:37.668Z,80.1
2024-01-24T21:49:37.654Z,80.6
2024-01-24T21:50:34.102Z,80.6
2024-01-24T21:51:37.653Z,80.8
2024-01-24T21:52:37.619Z,80.6
2024-01-24T21:53:37.620Z,80.7
2024-01-24T21:54:37.681Z,81.3
2024-01-24T21:55:34.087Z,81.3
2024-01-24T21:56:37.590Z,80.9